Create Tblcommutelog Verified Points Advance Search
| # | Trip ID | Id Commuter | Trip Date | Trip Num | Current Lat | Current Lng | Delta Distance | Current Time | Activity | Activity Confidence | Current Speed | |
|---|---|---|---|---|---|---|---|---|---|---|---|---|
| 71701 | 251201_780214_16647896_1656 | 780214 | (not set) | (not set) | 39.4181296 | -77.4104296 | 3.8766 | 2025-12-01 17:24:49 | still | 100 | 3.2991497313294 | |
| 71702 | 251201_781273_16648948_1702 | 781273 | (not set) | (not set) | 38.95891900849 | -77.085088630912 | 3.8663 | 2025-12-01 17:24:58 | in_vehicle | 100 | -0.44703925898772 | |
| 71703 | 251201_788480_16657110_1707 | 788480 | (not set) | (not set) | 38.917737714084 | -77.0404268144 | 2.5463 | 2025-12-01 17:25:09 | unknown | 100 | 2.1144956950119 | |
| 71704 | 251201_772512_16639788_1708 | 772512 | (not set) | (not set) | 39.159576484279 | -76.697314499849 | 13.8094 | 2025-12-01 17:25:17 | unknown | 100 | 17.818984863251 | |
| 71705 | 251201_769852_16636925_1617 | 769852 | (not set) | (not set) | 39.002582199445 | -77.181902718817 | 11.0554 | 2025-12-01 17:25:27 | in_vehicle | 100 | 3.0443373537064 | |
| 71706 | 251201_780214_16647896_1656 | 780214 | (not set) | (not set) | 39.4214711 | -77.4097476 | 4.0076 | 2025-12-01 17:25:41 | still | 100 | -0.44703925898772 | |
| 71707 | 251201_777802_16658480_1712 | 777802 | (not set) | (not set) | 38.8661713 | -77.3242161 | 9.6297 | 2025-12-01 17:25:49 | in_vehicle | 100 | 13.47823365848 | |
| 71708 | 251201_789486_16658352_1644 | 789486 | (not set) | (not set) | 38.922320631503 | -76.995380192689 | 8.9643 | 2025-12-01 17:25:57 | in_vehicle | 100 | 5.4047046411616 | |
| 71709 | 251201_790224_16659215_1645 | 790224 | (not set) | (not set) | 38.613293077229 | -77.301164142855 | 27.1151 | 2025-12-01 17:26:05 | in_vehicle | 100 | 14.144322154372 | |
| 71710 | 251201_696035_16551372_1641 | 696035 | (not set) | (not set) | 38.901185845682 | -76.945162534957 | 5.47 | 2025-12-01 17:26:14 | in_vehicle | 100 | 2.7269394798251 | |
| 71711 | 251201_790224_16659215_1645 | 790224 | (not set) | (not set) | 38.608769138989 | -77.306090258728 | 27.5256 | 2025-12-01 17:26:28 | in_vehicle | 100 | 13.134013429059 | |
| 71712 | 251201_781236_16648911_1724 | 781236 | (not set) | (not set) | 38.980999703703 | -77.098469773917 | 0.2077 | 2025-12-01 17:26:41 | unknown | 100 | 0.026822355539263 | |
| 71713 | 251201_785147_16653236_1657 | 785147 | (not set) | (not set) | 38.9504185 | -77.573145516667 | 10.1131 | 2025-12-01 17:26:50 | in_vehicle | 100 | 5.681868981734 | |
| 71714 | 251201_769783_16636848_1706 | 769783 | (not set) | (not set) | 38.954399387424 | -77.004476072224 | 2.7212 | 2025-12-01 17:28:31 | on_foot | 100 | 0.55432868114478 | |
| 71715 | 251201_769783_16636848_1706 | 769783 | (not set) | (not set) | 38.954399387424 | -77.004476072224 | 2.7212 | 2025-12-01 17:28:31 | on_foot | 100 | 0.55432868114478 | |
| 71716 | 251201_788397_16657014_1649 | 788397 | (not set) | (not set) | 39.013515009362 | -76.978263166604 | 5.9263 | 2025-12-01 17:27:16 | in_vehicle | 100 | 0 | |
| 71717 | 251201_751043_16617307_1718 | 751043 | (not set) | (not set) | 38.916307968583 | -76.999163853993 | 0.8595 | 2025-12-01 17:27:25 | on_bicycle | 100 | 2.074262161703 | |
| 71718 | 251201_785997_16654252_1601 | 785997 | (not set) | (not set) | 39.420317424593 | -76.282157219235 | 61.0317 | 2025-12-01 17:27:34 | in_vehicle | 100 | 9.7096927052134 | |
| 71719 | 251201_731669_16595792_1649 | 731669 | (not set) | (not set) | 38.855424109702 | -77.047648626788 | 4.3874 | 2025-12-01 17:27:44 | in_vehicle | 100 | 6.3881910109346 | |
| 71720 | 251201_785997_16654252_1601 | 785997 | (not set) | (not set) | 39.422743984403 | -76.276469924533 | 61.379 | 2025-12-01 17:27:57 | in_vehicle | 100 | 11.542553667063 |